Time;durP1;ratioP1;P1;durP2;ratioP2;P2;SDS_P1;SDS_P2;PMS_P1;PMS_P2;Temp;Humidity;BMP_temperature;BMP_pressure;BME280_temperature;BME280_humidity;BME280_pressure;Samples;Min_cycle;Max_cycle;Signal;HPM_P1;HPM_P2
2023/04/02 00:01:51;;;;;;;;;;;;;;;7.82;100.00;98598.28;5054554;28;974;-59
2023/04/02 00:04:21;;;;;;;;;;;;;;;7.77;100.00;98602.28;5054271;28;1889;-58
2023/04/02 00:07:09;;;;;;;;;;;;;;;7.56;100.00;98603.31;5054202;28;862;-59
2023/04/02 00:09:36;;;;;;;;;;;;;;;7.44;100.00;98609.34;5055059;28;1871;-59
2023/04/02 00:12:16;;;;;;;;;;;;;;;7.43;100.00;98605.06;5054156;28;826;-59
2023/04/02 00:14:48;;;;;;;;;;;;;;;7.41;100.00;98599.97;5054371;28;802;-59
2023/04/02 00:17:15;;;;;;;;;;;;;;;7.34;100.00;98605.56;5053948;28;909;-59
2023/04/02 00:19:56;;;;;;;;;;;;;;;7.31;100.00;98607.13;5053960;28;909;-58
2023/04/02 00:22:30;;;;;;;;;;;;;;;7.08;100.00;98601.47;5053943;28;846;-59
2023/04/02 00:24:59;;;;;;;;;;;;;;;6.72;100.00;98604.56;5052830;28;1975;-59
2023/04/02 00:27:26;;;;;;;;;;;;;;;6.41;100.00;98603.66;5053827;28;949;-59
2023/04/02 00:29:54;;;;;;;;;;;;;;;6.15;100.00;98597.56;5053876;28;787;-59
2023/04/02 00:32:29;;;;;;;;;;;;;;;5.85;100.00;98601.59;5053775;28;814;-58
2023/04/02 00:34:56;;;;;;;;;;;;;;;5.78;100.00;98598.88;5053915;28;810;-59
2023/04/02 00:37:26;;;;;;;;;;;;;;;5.69;100.00;98609.50;5053857;28;873;-59
2023/04/02 00:39:59;;;;;;;;;;;;;;;5.68;100.00;98607.97;5053622;28;897;-59
2023/04/02 00:42:28;;;;;;;;;;;;;;;5.96;100.00;98604.31;5053535;28;877;-59
2023/04/02 00:44:57;;;;;;;;;;;;;;;6.44;100.00;98600.84;5053478;28;1889;-59
2023/04/02 00:47:32;;;;;;;;;;;;;;;6.83;100.00;98610.75;5053465;28;941;-59
2023/04/02 00:50:05;;;;;;;;;;;;;;;6.78;100.00;98613.16;5053850;28;953;-58
2023/04/02 00:52:32;;;;;;;;;;;;;;;6.49;100.00;98611.41;5053423;28;790;-59
2023/04/02 00:55:12;;;;;;;;;;;;;;;6.18;100.00;98604.97;5053229;28;917;-59
2023/04/02 00:57:41;;;;;;;;;;;;;;;5.92;100.00;98612.53;5054076;28;767;-59
2023/04/02 01:00:22;;;;;;;;;;;;;;;5.75;100.00;98615.38;5053484;28;810;-59
2023/04/02 01:03:09;;;;;;;;;;;;;;;5.66;100.00;98624.81;5053138;28;866;-59
2023/04/02 01:05:36;;;;;;;;;;;;;;;5.57;100.00;98626.41;5053117;28;1927;-59
2023/04/02 01:08:11;;;;;;;;;;;;;;;5.61;100.00;98614.25;5053088;28;986;-59
2023/04/02 01:10:50;;;;;;;;;;;;;;;5.73;100.00;98621.25;5053037;28;1407;-59
2023/04/02 01:13:26;;;;;;;;;;;;;;;5.78;100.00;98626.31;5053007;28;802;-59
2023/04/02 01:16:18;;;;;;;;;;;;;;;5.67;100.00;98626.34;5053110;28;830;-59
2023/04/02 01:18:45;;;;;;;;;;;;;;;5.57;100.00;98626.41;5053111;28;845;-59
2023/04/02 01:21:12;;;;;;;;;;;;;;;5.43;100.00;98629.97;5052916;28;810;-59
2023/04/02 01:23:47;;;;;;;;;;;;;;;5.51;100.00;98628.78;5052732;28;2002;-59
2023/04/02 01:26:13;;;;;;;;;;;;;;;5.72;100.00;98625.19;5052808;28;814;-59
2023/04/02 01:28:58;;;;;;;;;;;;;;;5.90;100.00;98633.31;5052770;28;921;-59
2023/04/02 01:31:26;;;;;;;;;;;;;;;5.97;100.00;98630.56;5052697;28;849;-59
2023/04/02 01:33:53;;;;;;;;;;;;;;;5.96;100.00;98630.97;5052651;28;1166;-59
2023/04/02 01:36:27;;;;;;;;;;;;;;;5.72;100.00;98633.41;5052470;28;826;-59
2023/04/02 01:39:17;;;;;;;;;;;;;;;5.63;100.00;98633.84;5052537;28;814;-59
2023/04/02 01:41:49;;;;;;;;;;;;;;;5.59;100.00;98638.53;5049428;28;2194;-58
2023/04/02 01:44:40;;;;;;;;;;;;;;;5.62;100.00;98636.97;5052677;28;1886;-59
2023/04/02 01:47:10;;;;;;;;;;;;;;;5.71;100.00;98642.78;5046110;28;1240;-58
2023/04/02 01:49:39;;;;;;;;;;;;;;;5.79;100.00;98638.06;5052378;28;787;-58
2023/04/02 01:52:06;;;;;;;;;;;;;;;5.85;100.00;98633.75;5052247;28;866;-58
2023/04/02 01:54:36;;;;;;;;;;;;;;;5.96;100.00;98639.19;5052032;28;936;-59
2023/04/02 01:57:03;;;;;;;;;;;;;;;6.05;100.00;98634.81;5067435;28;888;-58
2023/04/02 01:59:32;;;;;;;;;;;;;;;6.15;100.00;98632.44;5052488;28;807;-58
2023/04/02 02:02:01;;;;;;;;;;;;;;;6.22;100.00;98641.41;5052097;28;838;-58
2023/04/02 02:04:28;;;;;;;;;;;;;;;6.23;100.00;98642.97;5051987;28;1898;-58
2023/04/02 02:06:57;;;;;;;;;;;;;;;6.32;100.00;98643.28;5052012;28;819;-58
2023/04/02 02:09:26;;;;;;;;;;;;;;;6.50;100.00;98653.38;5052383;28;901;-58
2023/04/02 02:11:52;;;;;;;;;;;;;;;6.48;100.00;98644.75;5052009;28;1295;-58
2023/04/02 02:14:20;;;;;;;;;;;;;;;6.66;100.00;98656.41;5052210;28;806;-58
2023/04/02 02:16:48;;;;;;;;;;;;;;;6.73;100.00;98648.09;5051856;28;918;-58
2023/04/02 02:19:21;;;;;;;;;;;;;;;6.75;100.00;98645.72;5050518;28;1369;-58
2023/04/02 02:21:52;;;;;;;;;;;;;;;6.75;100.00;98645.72;5051740;28;882;-58
2023/04/02 02:24:22;;;;;;;;;;;;;;;6.70;100.00;98657.16;5051563;28;1997;-58
2023/04/02 02:26:53;;;;;;;;;;;;;;;6.68;100.00;98650.50;5051982;28;932;-58
2023/04/02 02:29:21;;;;;;;;;;;;;;;6.72;100.00;98652.03;5052053;28;806;-58
2023/04/02 02:31:53;;;;;;;;;;;;;;;6.75;100.00;98656.72;5052088;28;895;-58
2023/04/02 02:34:22;;;;;;;;;;;;;;;6.77;100.00;98642.59;5051608;28;783;-58
2023/04/02 02:36:52;;;;;;;;;;;;;;;6.73;100.00;98650.06;5051578;28;858;-58
2023/04/02 02:39:35;;;;;;;;;;;;;;;6.65;100.00;98649.34;5051536;28;874;-58
2023/04/02 02:42:05;;;;;;;;;;;;;;;6.56;100.00;98648.25;5051888;28;885;-58
2023/04/02 02:44:35;;;;;;;;;;;;;;;6.50;100.00;98654.16;5051405;28;1951;-58
2023/04/02 02:47:07;;;;;;;;;;;;;;;6.49;100.00;98643.59;5050938;28;866;-58
2023/04/02 02:49:39;;;;;;;;;;;;;;;6.49;100.00;98663.56;5051456;28;830;-58
2023/04/02 02:52:06;;;;;;;;;;;;;;;6.56;100.00;98661.97;5051425;28;888;-58
2023/04/02 02:54:34;;;;;;;;;;;;;;;6.69;100.00;98658.31;5051836;28;811;-58
2023/04/02 02:57:03;;;;;;;;;;;;;;;6.84;100.00;98667.22;5050414;28;819;-58
2023/04/02 02:59:30;;;;;;;;;;;;;;;6.95;100.00;98656.94;5051837;28;841;-58
2023/04/02 03:01:58;;;;;;;;;;;;;;;7.00;100.00;98658.47;5051312;28;822;-58
2023/04/02 03:04:25;;;;;;;;;;;;;;;7.03;100.00;98662.38;5051310;28;1885;-58
2023/04/02 03:06:52;;;;;;;;;;;;;;;7.02;100.00;98666.28;5051321;28;868;-59
2023/04/02 03:09:30;;;;;;;;;;;;;;;7.00;100.00;98663.19;5051162;28;1037;-58
2023/04/02 03:12:23;;;;;;;;;;;;;;;7.01;100.00;98662.00;5051173;28;1540;-58
2023/04/02 03:14:56;;;;;;;;;;;;;;;7.07;100.00;98671.38;5051248;28;893;-58
2023/04/02 03:17:33;;;;;;;;;;;;;;;7.05;100.00;98671.78;5051293;28;900;-58
2023/04/02 03:20:05;;;;;;;;;;;;;;;7.01;100.00;98676.50;5051159;28;802;-58
2023/04/02 03:22:37;;;;;;;;;;;;;;;7.00;100.00;98677.72;5051074;28;805;-58
2023/04/02 03:25:03;;;;;;;;;;;;;;;7.04;100.00;98675.72;5051153;28;1967;-58
2023/04/02 03:27:30;;;;;;;;;;;;;;;7.07;100.00;98677.66;5051060;28;849;-59
2023/04/02 03:30:15;;;;;;;;;;;;;;;7.11;100.00;98669.38;5051239;28;865;-58
2023/04/02 03:32:43;;;;;;;;;;;;;;;7.16;100.00;98666.19;5051161;28;873;-58
2023/04/02 03:35:21;;;;;;;;;;;;;;;7.29;100.00;98674.69;5051459;28;830;-58
2023/04/02 03:38:06;;;;;;;;;;;;;;;7.47;100.00;98686.31;5050975;28;822;-58
2023/04/02 03:40:41;;;;;;;;;;;;;;;7.57;100.00;98677.16;5051064;28;901;-58
2023/04/02 03:43:19;;;;;;;;;;;;;;;7.62;100.00;98669.63;5050843;28;929;-58
2023/04/02 03:45:49;;;;;;;;;;;;;;;7.64;100.00;98661.75;5050884;28;1878;-58
2023/04/02 03:48:36;;;;;;;;;;;;;;;7.67;100.00;98675.47;5050904;28;921;-58
2023/04/02 03:51:05;;;;;;;;;;;;;;;7.66;100.00;98684.94;5051056;28;1750;-58
2023/04/02 03:53:32;;;;;;;;;;;;;;;7.62;100.00;98681.44;5050933;28;814;-58
2023/04/02 03:56:01;;;;;;;;;;;;;;;7.56;100.00;98681.09;5050867;28;822;-58
2023/04/02 03:58:32;;;;;;;;;;;;;;;7.50;100.00;98690.97;5050841;28;829;-58
2023/04/02 04:01:04;;;;;;;;;;;;;;;7.44;100.00;98689.84;5053857;28;850;-58
2023/04/02 04:03:43;;;;;;;;;;;;;;;7.42;100.00;98678.47;5054594;28;1890;-58
2023/04/02 04:06:19;;;;;;;;;;;;;;;7.36;100.00;98682.84;5069825;28;810;-58
2023/04/02 04:08:53;;;;;;;;;;;;;;;7.25;100.00;98680.22;5054686;28;1046;-58
2023/04/02 04:11:23;;;;;;;;;;;;;;;7.18;100.00;98683.03;5053969;28;1276;-58
2023/04/02 04:14:10;;;;;;;;;;;;;;;7.12;100.00;98666.19;5054111;28;965;-58
2023/04/02 04:16:48;;;;;;;;;;;;;;;7.09;100.00;98678.03;5050150;28;1174;-58
2023/04/02 04:19:18;;;;;;;;;;;;;;;7.08;100.00;98683.91;5054013;28;877;-58
2023/04/02 04:21:45;;;;;;;;;;;;;;;7.10;100.00;98685.06;5053875;28;969;-58
2023/04/02 04:24:21;;;;;;;;;;;;;;;7.14;100.00;98691.31;5053974;28;1977;-58
2023/04/02 04:26:53;;;;;;;;;;;;;;;7.19;100.00;98695.59;5069309;28;932;-58
2023/04/02 04:29:37;;;;;;;;;;;;;;;7.28;100.00;98698.66;5053877;28;814;-58
2023/04/02 04:32:25;;;;;;;;;;;;;;;7.39;100.00;98715.03;5053846;28;834;-58
2023/04/02 04:34:56;;;;;;;;;;;;;;;7.52;100.00;98718.06;5053730;28;949;-58
2023/04/02 04:37:37;;;;;;;;;;;;;;;7.63;100.00;98717.97;5053659;28;921;-58
2023/04/02 04:40:10;;;;;;;;;;;;;;;7.69;100.00;98730.84;5053660;28;827;-57
2023/04/02 04:42:39;;;;;;;;;;;;;;;7.73;100.00;98730.81;5053858;28;827;-58
2023/04/02 04:45:09;;;;;;;;;;;;;;;7.67;100.00;98733.22;5053458;28;1898;-56
2023/04/02 04:47:38;;;;;;;;;;;;;;;7.74;100.00;98729.63;5053878;28;791;-57
2023/04/02 04:50:31;;;;;;;;;;;;;;;8.09;100.00;98730.44;5053674;28;881;-58
2023/04/02 04:53:03;;;;;;;;;;;;;;;8.33;100.00;98725.78;5052394;28;1688;-57
2023/04/02 04:55:41;;;;;;;;;;;;;;;8.42;100.00;98725.31;5069011;28;834;-58
2023/04/02 04:58:15;;;;;;;;;;;;;;;8.55;100.00;98731.81;5053395;28;890;-58
2023/04/02 05:00:41;;;;;;;;;;;;;;;8.74;100.00;98741.38;5053279;28;782;-58
2023/04/02 05:03:31;;;;;;;;;;;;;;;8.91;100.00;98737.56;5053278;28;864;-58
2023/04/02 05:06:22;;;;;;;;;;;;;;;9.23;100.00;98749.31;5053215;28;1894;-58
2023/04/02 05:08:50;;;;;;;;;;;;;;;9.57;100.00;98754.63;5053272;28;2200;-57
2023/04/02 05:11:28;;;;;;;;;;;;;;;9.88;100.00;98757.22;5052411;28;1440;-57
2023/04/02 05:14:01;;;;;;;;;;;;;;;9.86;100.00;98754.91;5053052;28;862;-57
2023/04/02 05:16:41;;;;;;;;;;;;;;;9.70;100.00;98752.81;5053006;28;806;-57
2023/04/02 05:19:11;;;;;;;;;;;;;;;9.73;100.00;98756.69;5053156;28;858;-57
2023/04/02 05:21:38;;;;;;;;;;;;;;;9.98;100.00;98759.78;5052693;28;913;-57
2023/04/02 05:24:32;;;;;;;;;;;;;;;10.14;100.00;98761.06;5052765;28;1961;-56
2023/04/02 05:27:01;;;;;;;;;;;;;;;10.35;100.00;98757.91;5052709;28;819;-56
2023/04/02 05:29:30;;;;;;;;;;;;;;;10.41;100.00;98764.50;5052666;28;939;-57
2023/04/02 05:32:02;;;;;;;;;;;;;;;10.36;100.00;98773.25;5052651;28;872;-56
2023/04/02 05:34:31;;;;;;;;;;;;;;;10.30;100.00;98779.72;5052748;28;811;-56
2023/04/02 05:36:58;;;;;;;;;;;;;;;10.49;100.00;98778.16;5052822;28;1045;-56
2023/04/02 05:39:26;;;;;;;;;;;;;;;11.60;100.00;98786.66;5053059;28;826;-56
2023/04/02 05:42:15;;;;;;;;;;;;;;;12.94;100.00;98782.53;5052816;28;806;-56
2023/04/02 05:44:50;;;;;;;;;;;;;;;13.30;100.00;98775.91;5049702;28;1945;-57
2023/04/02 05:47:21;;;;;;;;;;;;;;;12.67;100.00;98785.72;5052358;28;862;-56
2023/04/02 05:49:50;;;;;;;;;;;;;;;11.77;100.00;98781.88;5067653;28;984;-55
2023/04/02 05:52:21;;;;;;;;;;;;;;;11.31;100.00;98783.81;5052457;28;830;-54
2023/04/02 05:55:06;;;;;;;;;;;;;;;11.35;100.00;98790.03;5052359;28;894;-56
2023/04/02 05:57:40;;;;;;;;;;;;;;;11.04;100.00;98791.13;5052244;28;806;-55
2023/04/02 06:00:13;;;;;;;;;;;;;;;10.81;100.00;98799.56;5052212;28;865;-56
2023/04/02 06:02:43;;;;;;;;;;;;;;;10.86;100.00;98795.50;5052085;28;859;-55
2023/04/02 06:05:19;;;;;;;;;;;;;;;10.77;100.00;98802.41;5051942;28;1909;-55
2023/04/02 06:08:05;;;;;;;;;;;;;;;10.91;100.00;98804.09;5052278;28;826;-56
2023/04/02 06:10:44;;;;;;;;;;;;;;;10.90;100.00;98802.50;5051739;28;1133;-55
2023/04/02 06:13:15;;;;;;;;;;;;;;;10.86;100.00;98804.59;5051915;28;806;-55
2023/04/02 06:15:42;;;;;;;;;;;;;;;11.10;100.00;98807.22;5051865;28;910;-54
2023/04/02 06:18:15;;;;;;;;;;;;;;;11.43;100.00;98811.56;5051787;28;1034;-56
2023/04/02 06:20:42;;;;;;;;;;;;;;;12.37;100.00;98809.94;5052351;28;819;-56
2023/04/02 06:23:12;;;;;;;;;;;;;;;12.56;100.00;98804.69;5049824;28;1186;-56
2023/04/02 06:25:47;;;;;;;;;;;;;;;12.72;100.00;98812.16;5051707;28;1914;-55
2023/04/02 06:28:22;;;;;;;;;;;;;;;13.02;100.00;98813.63;5051730;28;893;-55
2023/04/02 06:30:52;;;;;;;;;;;;;;;13.38;100.00;98823.66;5051942;28;861;-56
2023/04/02 06:33:18;;;;;;;;;;;;;;;13.65;100.00;98823.91;5052434;28;767;-56
2023/04/02 06:35:46;;;;;;;;;;;;;;;13.52;100.00;98828.72;5051629;28;1366;-54
2023/04/02 06:38:18;;;;;;;;;;;;;;;13.42;100.00;98832.59;5051787;28;839;-56
2023/04/02 06:40:54;;;;;;;;;;;;;;;13.00;100.00;98819.59;5051599;28;807;-54
2023/04/02 06:43:34;;;;;;;;;;;;;;;12.35;100.00;98825.44;5051500;28;903;-56
2023/04/02 06:46:07;;;;;;;;;;;;;;;12.53;100.00;98822.19;5051481;28;1943;-56
2023/04/02 06:48:36;;;;;;;;;;;;;;;12.67;100.00;98824.53;5051436;28;831;-55
2023/04/02 06:51:10;;;;;;;;;;;;;;;12.66;100.00;98826.53;5051433;28;913;-55
2023/04/02 06:53:41;;;;;;;;;;;;;;;12.58;100.00;98824.41;5051687;28;885;-56
2023/04/02 06:56:08;;;;;;;;;;;;;;;12.42;100.00;98830.81;5051359;28;897;-56
2023/04/02 06:58:35;;;;;;;;;;;;;;;12.59;100.00;98831.53;5051324;28;973;-55
2023/04/02 07:01:01;;;;;;;;;;;;;;;12.36;100.00;98832.56;5051433;28;879;-56
2023/04/02 07:03:30;;;;;;;;;;;;;;;12.13;100.00;98839.13;5051368;28;898;-57
2023/04/02 07:05:58;;;;;;;;;;;;;;;12.14;100.00;98832.34;5051294;28;1889;-57
2023/04/02 07:08:24;;;;;;;;;;;;;;;12.18;100.00;98841.34;5051231;28;921;-57
2023/04/02 07:10:50;;;;;;;;;;;;;;;12.44;100.00;98823.63;5051157;28;1275;-57
2023/04/02 07:13:17;;;;;;;;;;;;;;;13.07;100.00;98830.47;5051209;28;1162;-56
2023/04/02 07:15:47;;;;;;;;;;;;;;;14.05;100.00;98826.16;5051313;28;889;-56
2023/04/02 07:18:25;;;;;;;;;;;;;;;14.90;100.00;98824.28;5049788;28;876;-57
2023/04/02 07:20:50;;;;;;;;;;;;;;;15.64;100.00;98826.56;5051110;28;857;-58
2023/04/02 07:23:16;;;;;;;;;;;;;;;16.19;100.00;98823.88;5051205;28;814;-58
2023/04/02 07:25:42;;;;;;;;;;;;;;;16.37;100.00;98827.91;5051215;28;1909;-57
2023/04/02 07:28:07;;;;;;;;;;;;;;;15.84;100.00;98840.88;5051301;28;866;-58
2023/04/02 07:30:33;;;;;;;;;;;;;;;16.33;100.00;98826.03;5051078;28;890;-57
2023/04/02 07:33:00;;;;;;;;;;;;;;;16.71;100.00;98840.75;5051179;28;908;-56
2023/04/02 07:35:27;;;;;;;;;;;;;;;16.49;100.00;98824.97;5054893;28;866;-56
2023/04/02 07:37:53;;;;;;;;;;;;;;;15.52;100.00;98833.81;5054896;28;826;-57
2023/04/02 07:40:21;;;;;;;;;;;;;;;16.03;100.00;98830.53;5054844;28;846;-56
2023/04/02 07:42:48;;;;;;;;;;;;;;;16.70;100.00;98825.22;5054658;28;994;-56
2023/04/02 07:45:14;;;;;;;;;;;;;;;17.28;100.00;98823.34;5054671;28;1882;-56
2023/04/02 07:47:42;;;;;;;;;;;;;;;17.63;100.00;98834.84;5054546;28;893;-55
2023/04/02 07:50:09;;;;;;;;;;;;;;;17.38;98.77;98835.28;5054546;28;858;-57
2023/04/02 07:52:40;;;;;;;;;;;;;;;17.16;100.00;98839.09;5054796;28;933;-54
2023/04/02 07:55:09;;;;;;;;;;;;;;;17.22;99.14;98828.81;5054486;28;864;-55
2023/04/02 07:57:40;;;;;;;;;;;;;;;17.64;100.00;98847.53;5054472;28;866;-56
2023/04/02 08:00:28;;;;;;;;;;;;;;;18.13;99.44;98849.13;5054668;28;909;-56
2023/04/02 08:02:53;;;;;;;;;;;;;;;18.93;100.00;98848.59;5055426;28;1364;-57
2023/04/02 08:05:21;;;;;;;;;;;;;;;19.40;94.65;98837.63;5054290;28;1885;-57
2023/04/02 08:07:54;;;;;;;;;;;;;;;19.64;93.16;98829.81;5054844;28;792;-56
2023/04/02 08:10:20;;;;;;;;;;;;;;;19.10;97.70;98832.84;5054140;28;1427;-57
2023/04/02 08:12:48;;;;;;;;;;;;;;;18.52;99.84;98832.34;5054235;28;917;-57
2023/04/02 08:15:15;;;;;;;;;;;;;;;17.98;99.77;98833.56;5054129;28;905;-56
2023/04/02 08:17:42;;;;;;;;;;;;;;;18.10;100.00;98838.91;5054045;28;849;-57
2023/04/02 08:20:17;;;;;;;;;;;;;;;17.79;99.78;98844.81;5054046;28;1070;-54
2023/04/02 08:22:45;;;;;;;;;;;;;;;17.14;96.02;98849.94;5054235;28;850;-55
2023/04/02 08:25:12;;;;;;;;;;;;;;;16.77;98.42;98854.81;5052599;28;1973;-55
2023/04/02 08:27:38;;;;;;;;;;;;;;;16.71;97.57;98857.47;5054216;28;791;-55
2023/04/02 08:30:06;;;;;;;;;;;;;;;16.91;99.82;98862.56;5053777;28;806;-54
2023/04/02 08:32:33;;;;;;;;;;;;;;;16.95;97.85;98854.81;5053842;28;973;-56
2023/04/02 08:35:00;;;;;;;;;;;;;;;16.92;90.24;98864.13;5053706;28;964;-56
2023/04/02 08:37:26;;;;;;;;;;;;;;;16.48;91.82;98870.81;5052513;28;1706;-58
2023/04/02 08:39:53;;;;;;;;;;;;;;;16.64;95.89;98860.56;5053721;28;922;-55
2023/04/02 08:42:42;;;;;;;;;;;;;;;17.20;93.45;98869.63;5053668;28;806;-55
2023/04/02 08:45:34;;;;;;;;;;;;;;;17.68;98.12;98853.72;5052754;28;1889;-57
2023/04/02 08:48:02;;;;;;;;;;;;;;;18.28;91.88;98868.72;5068887;28;822;-56
2023/04/02 08:50:33;;;;;;;;;;;;;;;17.97;82.02;98860.75;5053452;28;920;-56
2023/04/02 08:53:01;;;;;;;;;;;;;;;17.39;96.09;98861.94;5053708;28;1042;-56
2023/04/02 08:55:41;;;;;;;;;;;;;;;18.23;94.38;98866.59;5068855;28;893;-56
2023/04/02 08:58:17;;;;;;;;;;;;;;;18.05;84.09;98872.31;5053339;28;857;-56
2023/04/02 09:00:46;;;;;;;;;;;;;;;18.39;86.46;98881.41;5053311;28;842;-56
2023/04/02 09:03:41;;;;;;;;;;;;;;;18.08;81.31;98863.00;5053344;28;1173;-57
2023/04/02 09:06:11;;;;;;;;;;;;;;;17.98;87.16;98867.09;5048372;28;1413;-56
2023/04/02 09:08:38;;;;;;;;;;;;;;;17.84;86.68;98865.81;5053215;28;1086;-57
2023/04/02 09:11:23;;;;;;;;;;;;;;;18.10;89.38;98855.69;5052821;28;1253;-56
2023/04/02 09:13:56;;;;;;;;;;;;;;;18.48;86.51;98853.38;5053103;28;877;-56
2023/04/02 09:16:32;;;;;;;;;;;;;;;18.62;84.41;98855.41;5068362;28;846;-56
2023/04/02 09:19:00;;;;;;;;;;;;;;;18.79;80.28;98854.97;5052940;28;929;-57
2023/04/02 09:21:40;;;;;;;;;;;;;;;19.60;85.40;98851.69;5052867;28;834;-56
2023/04/02 09:24:10;;;;;;;;;;;;;;;19.78;76.45;98840.25;5053109;28;1916;-57
2023/04/02 09:26:37;;;;;;;;;;;;;;;19.74;73.41;98839.69;5052776;28;961;-56
2023/04/02 09:29:21;;;;;;;;;;;;;;;20.05;69.68;98829.88;5052769;28;815;-56
2023/04/02 09:31:58;;;;;;;;;;;;;;;20.66;64.26;98837.47;5053253;28;865;-57
2023/04/02 09:34:32;;;;;;;;;;;;;;;20.44;67.91;98835.19;5052684;28;826;-57
2023/04/02 09:37:14;;;;;;;;;;;;;;;20.38;65.47;98834.34;5051303;28;810;-57
2023/04/02 10:10:45;;;;;;;;;;;;;;;19.33;57.65;98847.97;5330066;22;1510;-58
2023/04/02 10:13:18;;;;;;;;;;;;;;;19.79;57.83;98844.56;5051992;28;893;-57
2023/04/02 10:16:07;;;;;;;;;;;;;;;20.31;54.38;98848.78;5052393;28;826;-56
2023/04/02 10:18:43;;;;;;;;;;;;;;;20.70;56.55;98848.47;5041896;28;1333;-57
2023/04/02 10:21:16;;;;;;;;;;;;;;;21.27;56.32;98850.50;5052104;28;869;-57
2023/04/02 10:23:42;;;;;;;;;;;;;;;20.88;57.38;98841.75;5051830;28;1148;-56
2023/04/02 10:26:34;;;;;;;;;;;;;;;20.25;57.24;98850.75;5051649;28;1902;-56
2023/04/02 10:29:04;;;;;;;;;;;;;;;20.41;55.84;98844.56;5052285;28;833;-56
2023/04/02 10:31:54;;;;;;;;;;;;;;;20.66;55.28;98847.94;5051926;28;806;-56
2023/04/02 10:34:33;;;;;;;;;;;;;;;21.29;51.99;98850.75;5051688;28;853;-58
2023/04/02 10:37:02;;;;;;;;;;;;;;;21.13;52.05;98852.19;5051693;28;833;-58
2023/04/02 10:39:42;;;;;;;;;;;;;;;20.34;52.94;98845.00;5051390;28;893;-58
2023/04/02 10:42:16;;;;;;;;;;;;;;;20.21;54.03;98848.19;5051661;28;992;-58
2023/04/02 10:45:00;;;;;;;;;;;;;;;20.08;52.30;98856.16;5051790;28;1894;-58
2023/04/02 10:47:48;;;;;;;;;;;;;;;20.29;53.50;98857.72;5051473;28;900;-58
2023/04/02 10:50:30;;;;;;;;;;;;;;;20.31;51.68;98834.75;5067079;28;811;-57
2023/04/02 10:53:10;;;;;;;;;;;;;;;20.76;52.47;98843.66;5051414;28;1009;-56
2023/04/02 10:55:41;;;;;;;;;;;;;;;20.48;54.16;98848.97;5051554;28;854;-55
2023/04/02 10:58:18;;;;;;;;;;;;;;;20.46;52.61;98854.31;5051399;28;964;-55
2023/04/02 11:00:46;;;;;;;;;;;;;;;21.15;52.39;98849.66;5051320;28;941;-56
2023/04/02 11:03:18;;;;;;;;;;;;;;;21.70;52.05;98844.16;5051381;28;1009;-56
2023/04/02 11:05:48;;;;;;;;;;;;;;;21.35;48.26;98837.53;5051195;28;1961;-56
2023/04/02 11:08:20;;;;;;;;;;;;;;;21.32;47.97;98854.63;5052103;28;1415;-55
2023/04/02 11:10:55;;;;;;;;;;;;;;;20.95;47.26;98850.50;5055195;28;1298;-56
2023/04/02 11:16:24;;;;;;;;;;;;;;;20.41;50.08;98844.56;5055372;28;672;-56
2023/04/02 11:19:20;;;;;;;;;;;;;;;20.58;50.66;98853.19;5055483;28;826;-57
2023/04/02 11:21:50;;;;;;;;;;;;;;;21.27;52.30;98849.72;5055134;28;937;-55
2023/04/02 11:24:36;;;;;;;;;;;;;;;21.33;48.93;98845.69;5054925;28;1973;-55
2023/04/02 11:27:07;;;;;;;;;;;;;;;20.68;50.09;98853.81;5055071;28;1040;-54
2023/04/02 11:29:35;;;;;;;;;;;;;;;20.51;50.39;98850.81;5054951;28;942;-55
2023/04/02 11:32:23;;;;;;;;;;;;;;;20.90;50.56;98859.63;5055107;28;763;-56
2023/04/02 11:34:50;;;;;;;;;;;;;;;20.53;49.93;98853.91;5055389;28;861;-55
2023/04/02 11:37:31;;;;;;;;;;;;;;;21.41;50.12;98852.41;5055331;28;854;-56
2023/04/02 11:40:26;;;;;;;;;;;;;;;22.08;47.65;98851.25;5054956;28;986;-56
2023/04/02 11:42:53;;;;;;;;;;;;;;;22.43;47.44;98848.09;5054920;28;1703;-55
2023/04/02 11:45:23;;;;;;;;;;;;;;;22.90;47.47;98844.84;5055254;28;1926;-55
2023/04/02 11:48:07;;;;;;;;;;;;;;;23.84;47.56;98850.97;5054689;28;882;-56
2023/04/02 11:50:34;;;;;;;;;;;;;;;23.45;42.67;98848.22;5054594;28;834;-55
2023/04/02 11:53:04;;;;;;;;;;;;;;;22.58;43.71;98841.47;5054635;28;786;-55
2023/04/02 11:58:41;;;;;;;;;;;;;;;20.73;41.85;98842.63;5054567;28;624;-55
2023/04/02 12:01:20;;;;;;;;;;;;;;;20.39;43.40;98839.44;5054442;28;873;-56
2023/04/02 12:04:10;;;;;;;;;;;;;;;19.71;42.64;98853.88;5054404;28;944;-55
2023/04/02 12:06:46;;;;;;;;;;;;;;;19.22;43.04;98852.63;5054415;28;834;-54
2023/04/02 12:09:15;;;;;;;;;;;;;;;20.01;43.28;98856.59;5054501;28;1031;-54
2023/04/02 12:11:42;;;;;;;;;;;;;;;21.26;41.20;98851.00;5054099;28;1468;-53
2023/04/02 12:14:28;;;;;;;;;;;;;;;21.69;39.19;98839.81;5054350;28;806;-55
2023/04/02 12:16:55;;;;;;;;;;;;;;;22.99;39.87;98843.84;5054120;28;963;-55
2023/04/02 12:19:22;;;;;;;;;;;;;;;24.55;39.53;98843.25;5053690;28;901;-55
2023/04/02 12:21:51;;;;;;;;;;;;;;;25.15;37.56;98834.06;5053198;28;894;-56
2023/04/02 12:24:20;;;;;;;;;;;;;;;24.23;36.91;98841.56;5054070;28;1957;-56
2023/04/02 12:26:47;;;;;;;;;;;;;;;24.40;38.02;98832.25;5054003;28;869;-55
2023/04/02 12:29:21;;;;;;;;;;;;;;;24.09;37.19;98847.53;5053958;28;802;-49
2023/04/02 12:31:48;;;;;;;;;;;;;;;24.68;36.83;98832.13;5053835;28;936;-53
2023/04/02 12:34:19;;;;;;;;;;;;;;;24.76;33.24;98838.75;5053865;28;865;-56
2023/04/02 12:36:55;;;;;;;;;;;;;;;24.19;34.03;98851.59;5053688;28;806;-56
2023/04/02 12:39:22;;;;;;;;;;;;;;;24.20;33.75;98847.50;5054080;28;869;-56
2023/04/02 12:41:49;;;;;;;;;;;;;;;24.04;36.67;98838.56;5053730;28;845;-56
2023/04/02 12:44:22;;;;;;;;;;;;;;;23.43;37.63;98834.63;5053432;28;1878;-56
2023/04/02 12:46:49;;;;;;;;;;;;;;;22.08;37.07;98839.25;5053623;28;961;-55
2023/04/02 12:49:27;;;;;;;;;;;;;;;21.41;39.28;98838.38;5053522;28;833;-55
2023/04/02 12:51:54;;;;;;;;;;;;;;;21.49;40.79;98838.69;5053787;28;865;-55
2023/04/02 12:54:21;;;;;;;;;;;;;;;21.76;41.45;98839.34;5052270;28;1723;-55
2023/04/02 12:56:49;;;;;;;;;;;;;;;21.22;40.03;98834.38;5053406;28;802;-53
2023/04/02 12:59:34;;;;;;;;;;;;;;;21.86;39.61;98837.88;5053309;28;940;-55
2023/04/02 13:02:03;;;;;;;;;;;;;;;22.91;39.32;98831.53;5053658;28;866;-56
2023/04/02 13:04:30;;;;;;;;;;;;;;;23.60;37.21;98828.94;5053231;28;1949;-55
2023/04/02 13:06:57;;;;;;;;;;;;;;;23.67;35.86;98830.47;5053031;28;957;-54
2023/04/02 13:22:28;;;;;;;;;;;;;;;23.87;34.95;98839.94;5051328;28;1201;-54
2023/04/02 13:24:55;;;;;;;;;;;;;;;22.85;36.20;98834.34;5053037;28;1925;-55
2023/04/02 13:27:22;;;;;;;;;;;;;;;23.09;35.21;98831.06;5052816;28;905;-54
2023/04/02 13:29:49;;;;;;;;;;;;;;;23.38;34.58;98826.91;5052876;28;806;-55
2023/04/02 13:32:16;;;;;;;;;;;;;;;23.58;35.15;98827.94;5052343;28;877;-55
2023/04/02 13:34:42;;;;;;;;;;;;;;;23.46;34.70;98824.34;5052658;28;1210;-56
2023/04/02 13:37:11;;;;;;;;;;;;;;;23.19;34.84;98825.91;5052531;28;814;-55
2023/04/02 13:39:37;;;;;;;;;;;;;;;22.73;34.89;98821.53;5052857;28;885;-55
2023/04/02 13:42:07;;;;;;;;;;;;;;;23.10;35.31;98823.38;5052524;28;833;-55
2023/04/02 13:44:36;;;;;;;;;;;;;;;23.31;35.49;98827.44;5052394;28;1897;-55
2023/04/02 13:47:03;;;;;;;;;;;;;;;23.60;34.33;98828.19;5052322;28;861;-56
2023/04/02 13:49:30;;;;;;;;;;;;;;;23.77;34.27;98825.31;5052405;28;926;-56
2023/04/02 13:52:01;;;;;;;;;;;;;;;24.13;33.56;98826.25;5052351;28;968;-56
2023/04/02 13:54:33;;;;;;;;;;;;;;;23.84;34.13;98833.28;5052669;28;1179;-57
2023/04/02 13:57:00;;;;;;;;;;;;;;;22.78;36.66;98838.44;5052569;28;1149;-56
2023/04/02 13:59:26;;;;;;;;;;;;;;;21.79;37.92;98833.47;5052237;28;916;-54
2023/04/02 14:01:55;;;;;;;;;;;;;;;20.71;40.55;98839.53;5052228;28;856;-54
2023/04/02 14:04:24;;;;;;;;;;;;;;;20.02;43.21;98842.06;5051991;28;1951;-56
2023/04/02 14:07:13;;;;;;;;;;;;;;;19.50;42.79;98844.66;5052291;28;865;-57
2023/04/02 14:09:40;;;;;;;;;;;;;;;19.14;42.01;98839.03;5052449;28;986;-55
2023/04/02 14:12:25;;;;;;;;;;;;;;;18.79;41.72;98847.34;5051961;28;906;-55
2023/04/02 14:15:10;;;;;;;;;;;;;;;18.55;41.27;98844.59;5051940;28;1298;-55
2023/04/02 14:17:37;;;;;;;;;;;;;;;18.61;42.06;98842.66;5052059;28;874;-54
2023/04/02 14:20:12;;;;;;;;;;;;;;;18.69;41.96;98845.84;5051917;28;1162;-53
2023/04/02 14:22:38;;;;;;;;;;;;;;;18.81;41.86;98842.03;5052058;28;826;-54